Latest Weather Observations for Maatsuyker Island

IDT60801

Issued at 10:35 am EDT Saturday 29 November 2014 (issued every 30 minutes, with the page automatically refreshed every 10 minutes)

About weather observations | Map of weather stations | Latest weather observations for TAS | Other Formats
Station Details ID: 094041 Name: MAATSUYKER ISLAND LIGHTHOUSE Lat: -43.66 Lon: 146.27 Height: 146.5 m
Data from the previous 72 hours. | See also: Recent months at Maatsuyker Island
Date/Time
EDT
Temp
°C
App
Temp
°C
Dew
Point
Rel
Hum
%
Delta-T
°C
Wind Press
QNH
hPa
Press
MSL
hPa
Rain
since 9 am
mm
Dir
 
Spd
km/h
Gust
km/h
Spd
kts
Gust
kts
29/10:30am 11.1 7.2 5.2 67 2.7 SE 15 22 8 12 1020.5 - 0.0
29/10:00am 10.7 6.3 5.0 68 2.6 SSE 17 24 9 13 1020.5 - 0.0
29/09:30am 10.4 5.1 4.9 69 2.5 SSE 22 28 12 15 1021.0 - 0.0
29/09:00am 10.1 5.4 5.3 72 2.2 SE 19 26 10 14 1021.2 1021.4 1.4
29/08:30am 9.6 4.8 4.9 72 2.1 SSE 19 26 10 14 1021.0 - 1.4
29/08:00am 9.3 5.0 5.1 75 1.9 SSE 17 24 9 13 1021.0 - 1.4
29/07:30am 8.7 3.4 5.1 78 1.6 S 22 28 12 15 1020.7 - 1.4
29/07:00am 8.5 3.6 4.9 78 1.6 SSE 20 26 11 14 1020.5 - 1.4
29/06:30am 8.3 4.4 5.2 81 1.4 SE 15 24 8 13 1020.6 - 1.4
29/06:00am 8.2 3.9 5.1 81 1.4 SSE 17 24 9 13 1020.3 1020.4 1.4
29/05:30am 8.1 2.8 5.0 81 1.4 SSE 22 28 12 15 1020.3 - -
29/05:00am 8.2 3.6 5.5 83 1.2 S 19 26 10 14 1020.4 - 1.4
29/04:30am 8.5 3.7 5.6 82 1.3 S 20 26 11 14 1020.3 - 1.4
29/04:00am 8.6 4.8 6.0 84 1.2 SSE 15 20 8 11 1020.4 - 1.4
29/03:30am 8.5 4.8 6.1 85 1.1 SSE 15 20 8 11 1020.4 - 1.4
29/03:00am 8.6 4.1 6.2 85 1.1 S 19 22 10 12 1020.5 1020.6 1.4
29/02:30am 8.8 3.8 6.4 85 1.1 S 22 26 12 14 1020.7 - 1.4
29/02:00am 8.7 4.1 6.5 86 1.0 S 20 26 11 14 1020.7 - 1.4
29/01:30am 8.5 4.1 6.6 88 0.9 SE 19 24 10 13 1020.7 - 1.4
29/01:00am 8.7 3.8 6.8 88 0.9 S 22 28 12 15 1020.9 - 1.4
29/12:30am 9.1 4.4 7.8 92 0.6 S 22 30 12 16 1021.1 - 1.4
29/12:00am 9.6 5.6 9.0 96 0.3 S 20 24 11 13 1021.2 1021.4 1.4
 
Date/Time
EDT
Temp
°C
App
Temp
°C
Dew
Point
Rel
Hum
%
Delta-T
°C
Wind Press
QNH
hPa
Press
MSL
hPa
Rain
since 9 am
mm
Dir
 
Spd
km/h
Gust
km/h
Spd
kts
Gust
kts
28/11:30pm 10.0 6.1 9.4 96 0.3 S 20 24 11 13 1021.1 - 1.2
28/11:00pm 10.2 6.9 9.6 96 0.3 S 17 20 9 11 1021.4 - 0.6
28/10:30pm 10.9 4.9 10.1 95 0.4 NW 32 35 17 19 1021.3 - 0.0
28/10:00pm 11.1 5.3 9.3 89 0.9 NNW 30 35 16 19 1021.2 - 0.0
28/09:30pm 10.9 4.6 9.1 89 0.9 NNW 32 37 17 20 1021.2 - 0.0
28/09:00pm 11.0 4.5 9.0 87 1.0 NNW 33 41 18 22 1021.2 1021.4 0.0
28/08:30pm 11.0 4.1 8.8 86 1.1 NW 35 41 19 22 1021.3 - 0.0
28/08:00pm 11.1 3.4 8.7 85 1.2 NNW 39 44 21 24 1021.3 - 0.0
28/07:30pm 11.1 3.7 8.3 83 1.4 NW 37 43 20 23 1021.3 - 0.0
28/07:00pm 11.2 3.3 7.9 80 1.6 NW 39 44 21 24 1021.3 - 0.0
28/06:30pm 11.1 3.1 7.6 79 1.7 NW 39 43 21 23 1021.2 - 0.0
28/06:00pm 11.2 2.8 7.3 77 1.9 NW 41 44 22 24 1021.3 1021.5 0.0
28/05:30pm 11.5 2.8 7.6 77 1.9 NW 43 48 23 26 1021.4 - 0.0
28/05:00pm 11.5 2.5 7.1 74 2.1 NW 44 50 24 27 1021.4 - 0.0
28/04:30pm 11.6 2.4 6.5 71 2.4 NW 44 52 24 28 1021.6 - 0.0
28/04:00pm 11.6 2.5 6.8 72 2.3 NW 44 50 24 27 1021.4 - 0.0
28/03:30pm 11.8 2.3 6.5 70 2.5 NW 46 50 25 27 1021.7 - 0.0
28/03:00pm 11.6 2.4 6.3 70 2.5 W 44 54 24 29 1021.6 1021.8 0.0
28/02:30pm 11.7 1.6 5.5 66 2.9 NW 48 54 26 29 1021.7 - 0.0
28/02:00pm 11.7 1.1 4.9 63 3.1 NW 50 56 27 30 1021.9 - 0.0
28/01:30pm 12.2 2.0 5.3 62 3.2 NW 48 52 26 28 1022.0 - 0.0
28/01:00pm 11.9 1.6 4.9 62 3.2 NW 48 54 26 29 1022.1 - 0.0
28/12:30pm 11.8 1.6 5.1 63 3.1 NW 48 56 26 30 1022.2 - 0.0
28/12:00pm 11.8 2.1 5.6 66 2.9 NW 46 50 25 27 1022.4 1022.6 0.0
28/11:30am 10.9 1.3 4.5 64 2.9 NW 44 52 24 28 1022.3 - 0.0
28/11:00am 11.3 2.0 5.0 65 2.9 NW 43 48 23 26 1022.5 - 0.0
28/10:30am 11.6 3.0 4.6 62 3.2 NW 39 44 21 24 1023.0 - 0.0
28/10:00am 10.8 1.7 3.8 62 3.1 NW 41 46 22 25 1023.2 - 0.0
28/09:30am 10.9 1.5 4.5 64 2.9 NW 43 46 23 25 1023.5 - 0.0
28/09:00am 10.4 2.5 4.4 66 2.7 W 35 48 19 26 1023.5 1023.6 0.0
28/08:30am 10.4 1.2 3.6 63 3.0 NW 41 46 22 25 1023.2 - 0.0
28/08:00am 10.1 0.6 3.7 64 2.8 NW 43 50 23 27 1022.8 - 0.0
28/07:30am 10.1 2.1 3.7 64 2.8 NW 35 41 19 22 1022.8 - 0.0
28/07:00am 10.0 0.7 3.1 62 3.0 NW 41 46 22 25 1022.8 - 0.0
28/06:30am 9.4 2.4 4.2 70 2.3 WNW 30 35 16 19 1023.1 - 0.0
28/06:00am 9.1 3.0 4.6 73 2.0 WNW 26 37 14 20 1022.9 1023.1 0.0
28/05:30am 8.7 1.7 6.1 84 1.2 WNW 32 37 17 20 1022.9 - 0.0
28/05:00am 9.6 2.0 3.9 67 2.5 WNW 33 39 18 21 1022.7 - 0.0
28/04:30am 9.3 1.4 2.5 62 2.9 NW 33 43 18 23 1022.5 - 0.0
28/04:00am 9.4 0.4 4.7 72 2.1 NW 41 44 22 24 1022.4 - 0.0
28/03:30am 9.1 2.2 4.6 73 2.0 WNW 30 35 16 19 1023.0 - 0.0
28/03:00am 9.5 1.6 4.1 69 2.4 WNW 35 43 19 23 1022.8 1023.0 0.0
28/02:30am 9.9 1.9 3.8 66 2.7 NW 35 41 19 22 1022.6 - 0.0
28/02:00am 9.6 -0.4 4.2 69 2.4 NW 46 54 25 29 1022.7 - 0.0
28/01:30am 9.5 2.3 4.8 72 2.1 WNW 32 39 17 21 1023.5 - 0.0
28/01:00am 9.6 1.4 2.8 62 2.9 WNW 35 43 19 23 1023.5 - 0.0
28/12:30am 10.0 2.5 4.4 68 2.5 NW 33 39 18 21 1023.5 - 0.0
28/12:00am 9.7 2.5 5.1 73 2.1 NW 32 39 17 21 1024.0 1024.1 0.0
 
Date/Time
EDT
Temp
°C
App
Temp
°C
Dew
Point
Rel
Hum
%
Delta-T
°C
Wind Press
QNH
hPa
Press
MSL
hPa
Rain
since 9 am
mm
Dir
 
Spd
km/h
Gust
km/h
Spd
kts
Gust
kts
27/11:30pm 9.9 3.1 5.0 71 2.2 WNW 30 35 16 19 1024.2 - 0.0
27/11:00pm 10.1 2.7 2.1 57 3.4 NW 30 35 16 19 1024.3 - 0.0
27/10:30pm 9.9 2.8 3.8 66 2.7 WNW 30 35 16 19 1024.4 - 0.0
27/10:00pm 9.9 2.8 3.8 66 2.7 NW 30 37 16 20 1024.4 - 0.0
27/09:30pm 9.7 3.8 5.8 77 1.8 NW 26 32 14 17 1024.7 - 0.0
27/09:00pm 9.5 2.4 5.3 75 1.9 NW 32 35 17 19 1024.6 1024.7 0.0
27/08:30pm 9.8 3.3 4.7 70 2.3 WNW 28 35 15 19 1024.5 - 0.0
27/08:00pm 9.9 4.8 5.8 75 1.9 WNW 22 26 12 14 1024.6 - 0.0
27/07:30pm 10.1 4.6 5.8 74 2.0 WNW 24 28 13 15 1024.6 - 0.0
27/07:00pm 10.1 4.5 5.3 72 2.2 WNW 24 33 13 18 1024.6 - 0.0
27/06:30pm 10.6 4.8 6.1 74 2.1 WNW 26 32 14 17 1024.6 - 0.0
27/06:00pm 11.0 4.0 6.1 72 2.3 WNW 32 39 17 21 1024.6 1024.7 0.0
27/05:30pm 11.5 4.3 5.9 68 2.6 WNW 33 37 18 20 1024.6 - 0.0
27/05:00pm 10.9 4.8 6.4 74 2.1 WNW 28 33 15 18 1024.9 - 0.0
27/04:30pm 11.0 5.5 6.1 72 2.3 W 24 32 13 17 1025.2 - 0.0
27/04:00pm 11.6 4.6 5.8 67 2.7 WNW 32 39 17 21 1025.0 - 0.0
27/03:30pm 9.6 2.9 7.3 85 1.1 WNW 32 39 17 21 1025.2 - 0.0
27/03:00pm 11.5 5.5 6.9 73 2.2 W 28 37 15 20 1025.2 1025.3 0.0
27/02:30pm 10.8 2.3 5.1 68 2.6 WNW 39 48 21 26 1025.3 - 0.0
27/02:00pm 10.6 3.4 5.9 73 2.2 WNW 33 43 18 23 1025.4 - 0.0
27/01:30pm 10.5 3.2 5.5 71 2.3 WNW 33 41 18 22 1025.3 - 0.0
27/01:00pm 10.0 2.5 6.1 77 1.8 NW 35 44 19 24 1025.0 - 0.0
27/12:30pm 10.6 1.3 4.9 68 2.6 NW 43 48 23 26 1024.7 - 0.0
27/12:00pm 10.8 1.8 4.3 64 2.9 WNW 41 50 22 27 1025.1 1025.2 0.0
27/11:30am 11.1 2.3 3.4 59 3.4 WNW 39 46 21 25 1024.8 - 0.0
27/11:00am 10.4 1.3 4.1 65 2.8 WNW 41 48 22 26 1024.7 - 0.0
27/10:30am 10.7 1.9 3.4 60 3.2 WNW 39 44 21 24 1024.5 - 0.0
27/10:00am 10.2 -1.0 3.9 65 2.8 NW 52 59 28 32 1024.4 - 0.0
27/09:30am 9.7 -0.1 3.5 65 2.7 WNW 44 59 24 32 1024.6 - 0.0
27/09:00am 9.6 2.1 4.2 69 2.4 W 33 54 18 29 1024.6 1024.7 0.6
27/08:30am 9.6 2.4 5.7 76 1.8 W 33 43 18 23 1024.4 - 0.6
27/08:00am 9.9 0.5 2.4 59 3.2 WNW 41 52 22 28 1023.6 - 0.6
27/07:30am 9.4 -0.1 3.9 68 2.4 WNW 43 52 23 28 1023.7 - 0.6
27/07:00am 9.6 1.7 2.3 60 3.1 WNW 33 43 18 23 1023.6 - 0.6
27/06:30am 9.4 2.7 3.4 66 2.6 W 28 37 15 20 1023.2 - 0.6
27/06:00am 9.5 3.9 3.5 66 2.6 W 22 39 12 21 1022.8 1023.0 0.6
27/05:30am 9.4 2.1 4.7 72 2.1 W 32 41 17 22 1022.4 - 0.6
27/05:00am 9.2 1.1 3.4 67 2.5 W 35 46 19 25 1022.1 - 0.6
27/04:30am 9.7 1.5 4.6 70 2.3 WNW 37 48 20 26 1021.7 - 0.6
27/04:00am 9.5 1.9 3.0 64 2.8 W 32 43 17 23 1021.6 - 0.6
27/03:30am 9.2 2.2 4.2 71 2.2 W 30 43 16 23 1021.7 - 0.6
27/03:00am 9.7 0.9 3.5 65 2.7 WNW 39 50 21 27 1021.4 1021.6 0.6
27/02:30am 9.6 1.5 3.1 64 2.8 W 35 46 19 25 1021.6 - 0.6
27/02:00am 9.5 1.9 4.1 69 2.4 W 33 43 18 23 1021.6 - 0.6
27/01:30am 9.5 0.7 5.6 76 1.8 WNW 41 50 22 27 1021.6 - 0.6
27/01:00am 9.4 1.1 4.2 70 2.3 WNW 37 43 20 23 1021.8 - 0.6
27/12:30am 9.5 1.6 4.1 69 2.4 WNW 35 43 19 23 1021.8 - 0.6
27/12:00am 9.5 1.9 4.1 69 2.4 W 33 46 18 25 1022.1 1022.3 0.6
 
Date/Time
EDT
Temp
°C
App
Temp
°C
Dew
Point
Rel
Hum
%
Delta-T
°C
Wind Press
QNH
hPa
Press
MSL
hPa
Rain
since 9 am
mm
Dir
 
Spd
km/h
Gust
km/h
Spd
kts
Gust
kts
26/11:30pm 9.5 0.5 2.4 61 3.0 W 39 52 21 28 1022.0 - 0.6
26/11:00pm 9.4 2.0 5.0 74 2.0 W 33 48 18 26 1022.1 - 0.6
26/10:30pm 9.8 0.5 3.1 63 2.9 WNW 41 52 22 28 1021.9 - 0.6
26/10:00pm 9.7 0.3 2.1 59 3.2 W 41 54 22 29 1021.8 - 0.6
26/09:30pm 9.8 0.1 2.8 61 3.0 W 43 52 23 28 1021.3 - 0.6
26/09:00pm 10.2 0.3 4.9 69 2.4 WNW 46 57 25 31 1020.8 1021.0 0.6
26/08:30pm 10.3 0.6 5.8 73 2.1 WNW 46 54 25 29 1020.4 - 0.6
26/08:00pm 10.1 0.4 5.8 74 2.0 WNW 46 57 25 31 1020.0 - 0.6
26/07:30pm 9.8 0.4 5.2 73 2.1 WNW 44 54 24 29 1020.0 - 0.6
26/07:00pm 10.3 1.3 6.5 77 1.8 WNW 43 54 23 29 1019.5 - 0.6
26/06:30pm 10.3 -0.1 6.2 76 1.9 WNW 50 57 27 31 1018.7 - 0.6
26/06:00pm 10.6 0.9 5.6 71 2.3 WNW 46 57 25 31 1018.6 1018.7 0.6
26/05:30pm 10.8 0.6 5.4 69 2.5 WNW 48 54 26 29 1018.8 - 0.6
26/05:00pm 10.7 1.4 6.0 73 2.2 WNW 44 54 24 29 1018.3 - 0.6
26/04:30pm 10.1 2.6 6.5 78 1.7 W 35 48 19 26 1018.5 - 0.6
26/04:00pm 11.3 2.3 6.4 72 2.3 WNW 43 54 23 29 1018.1 - 0.6
26/03:30pm 11.1 2.4 7.6 79 1.7 WNW 43 50 23 27 1018.0 - 0.6
26/03:00pm 11.3 4.2 5.5 67 2.7 SW 32 46 17 25 1017.8 1017.9 0.6
26/02:30pm 10.5 1.8 6.2 75 2.0 WNW 41 54 22 29 1017.6 - 0.6
26/02:00pm 10.0 2.1 7.7 86 1.1 WNW 39 46 21 25 1017.3 - 0.6
26/01:32pm 9.9 2.4 6.3 78 1.7 W 35 54 19 29 1017.2 - 0.4
26/01:30pm 10.2 2.5 7.1 81 1.5 W 37 54 20 29 1017.2 - 0.4
26/01:23pm 10.8 3.4 6.8 76 1.9 W 35 54 19 29 1017.2 - 0.4
26/01:00pm 9.6 2.5 6.2 79 1.6 W 33 48 18 26 1017.0 - 0.4
26/12:30pm 9.3 1.8 6.5 83 1.3 W 35 56 19 30 1016.8 - 0.4
26/12:26pm 10.8 3.7 6.6 75 2.0 W 33 54 18 29 1016.6 - 0.4
26/12:00pm 10.8 2.5 6.1 73 2.2 W 39 48 21 26 1016.2 1016.4 0.4
26/11:30am 10.5 2.9 6.0 74 2.1 W 35 48 19 26 1015.8 - 0.4
26/11:00am 10.6 2.6 7.3 80 1.6 WNW 39 48 21 26 1015.5 - 0.4

Other Formats:

Comma delimited format used in spreadsheet applications
http://www.bom.gov.au/fwo/IDT60801/IDT60801.94962.axf

JavaScript Object Notation format (JSON) in row-major order
http://www.bom.gov.au/fwo/IDT60801/IDT60801.94962.json